createdAt,value
2022-09-09T00:00:59.235Z,15.67
2022-09-09T00:01:59.265Z,15.67
2022-09-09T00:02:59.358Z,15.68
2022-09-09T00:03:59.298Z,15.65
2022-09-09T00:04:59.213Z,15.64
2022-09-09T00:05:59.186Z,15.61
2022-09-09T00:06:59.187Z,15.68
2022-09-09T00:07:59.156Z,15.72
2022-09-09T00:08:59.142Z,15.65
2022-09-09T00:09:59.171Z,15.70
2022-09-09T00:10:59.161Z,15.68
2022-09-09T00:11:59.131Z,15.68
2022-09-09T00:12:59.103Z,15.72
2022-09-09T00:13:59.091Z,15.73
2022-09-09T00:14:59.079Z,15.80
2022-09-09T00:15:59.153Z,15.70
2022-09-09T00:16:59.229Z,15.76
2022-09-09T00:17:59.068Z,15.61
2022-09-09T00:18:59.603Z,15.70
2022-09-09T00:19:59.039Z,15.67
2022-09-09T00:20:59.138Z,15.72
2022-09-09T00:21:59.000Z,15.73
2022-09-09T00:22:59.055Z,15.72
2022-09-09T00:23:58.978Z,15.77
2022-09-09T00:24:58.984Z,15.67
2022-09-09T00:25:58.955Z,15.73
2022-09-09T00:26:58.946Z,15.73
2022-09-09T00:27:58.958Z,15.70
2022-09-09T00:28:58.922Z,15.59
2022-09-09T00:29:58.933Z,15.64
2022-09-09T00:30:58.929Z,15.61
2022-09-09T00:31:58.889Z,15.59
2022-09-09T00:32:58.879Z,15.55
2022-09-09T00:33:59.036Z,15.59
2022-09-09T00:35:00.686Z,15.54
2022-09-09T00:35:59.840Z,15.54
2022-09-09T00:36:58.874Z,15.51
2022-09-09T00:37:58.822Z,15.51
2022-09-09T00:38:58.807Z,15.55
2022-09-09T00:39:59.081Z,15.47
2022-09-09T00:40:58.784Z,15.46
2022-09-09T00:41:58.836Z,15.54
2022-09-09T00:42:59.432Z,15.58
2022-09-09T00:43:58.753Z,15.54
2022-09-09T00:44:58.769Z,15.51
2022-09-09T00:45:58.764Z,15.52
2022-09-09T00:46:58.723Z,15.54
2022-09-09T00:47:58.709Z,15.40
2022-09-09T00:48:58.703Z,15.39
2022-09-09T00:50:01.251Z,15.39
2022-09-09T00:50:58.691Z,15.39
2022-09-09T00:51:58.663Z,15.47
2022-09-09T00:52:58.658Z,15.43
2022-09-09T00:53:58.638Z,15.46
2022-09-09T00:54:58.651Z,15.42
2022-09-09T00:55:59.039Z,15.40
2022-09-09T00:56:58.691Z,15.42
2022-09-09T00:57:58.594Z,15.44
2022-09-09T00:58:58.593Z,15.44
2022-09-09T00:59:58.569Z,15.39
2022-09-09T01:00:58.580Z,15.37
2022-09-09T01:01:58.625Z,15.33
2022-09-09T01:02:58.594Z,15.27
2022-09-09T01:03:58.526Z,15.31
2022-09-09T01:04:58.513Z,15.37
2022-09-09T01:07:19.174Z,15.25
2022-09-09T01:08:19.187Z,15.27
2022-09-09T01:09:19.113Z,15.28
2022-09-09T01:10:19.104Z,15.27
2022-09-09T01:11:19.106Z,15.27
2022-09-09T01:12:19.076Z,15.35
2022-09-09T01:13:19.064Z,15.24
2022-09-09T01:14:19.052Z,15.22
2022-09-09T01:15:19.063Z,15.21
2022-09-09T01:16:19.063Z,15.24
2022-09-09T01:17:19.020Z,15.19
2022-09-09T01:18:19.010Z,15.19
2022-09-09T01:19:18.998Z,15.21
2022-09-09T01:20:19.005Z,15.18
2022-09-09T01:21:18.970Z,15.18
2022-09-09T01:22:18.965Z,15.17
2022-09-09T01:23:19.182Z,15.14
2022-09-09T01:24:18.937Z,15.09
2022-09-09T01:25:18.947Z,14.99
2022-09-09T01:26:18.920Z,15.07
2022-09-09T01:27:19.800Z,15.10
2022-09-09T01:28:18.896Z,15.10
2022-09-09T01:29:27.669Z,15.06
2022-09-09T01:30:18.910Z,15.11
2022-09-09T01:31:18.928Z,15.15
2022-09-09T01:32:18.855Z,15.14
2022-09-09T01:33:18.855Z,15.09
2022-09-09T01:34:18.823Z,15.11
2022-09-09T01:35:18.816Z,15.09
2022-09-09T01:36:18.803Z,15.02
2022-09-09T01:37:18.806Z,15.02
2022-09-09T01:38:19.003Z,15.00
2022-09-09T01:39:18.783Z,15.02
2022-09-09T01:40:18.866Z,15.02
2022-09-09T01:41:18.760Z,15.04
2022-09-09T01:42:19.062Z,15.00
2022-09-09T01:43:18.726Z,15.00
2022-09-09T01:44:18.710Z,14.99
2022-09-09T01:45:18.707Z,15.07
2022-09-09T01:46:18.811Z,14.97
2022-09-09T01:47:18.696Z,15.06
2022-09-09T01:48:18.668Z,15.02
2022-09-09T01:49:18.659Z,14.92
2022-09-09T01:50:18.646Z,14.89
2022-09-09T01:51:18.650Z,14.96
2022-09-09T01:52:18.619Z,14.88
2022-09-09T01:53:18.675Z,14.88
2022-09-09T01:54:18.598Z,14.92
2022-09-09T01:55:18.622Z,14.88
2022-09-09T01:56:18.595Z,14.91
2022-09-09T01:57:18.638Z,14.91
2022-09-09T01:58:18.556Z,14.88
2022-09-09T01:59:18.570Z,14.88
2022-09-09T02:00:18.542Z,14.89
2022-09-09T02:01:18.626Z,14.89
2022-09-09T02:02:18.544Z,14.88
2022-09-09T02:03:18.504Z,14.86
2022-09-09T02:04:18.488Z,14.88
2022-09-09T02:05:18.496Z,14.84
2022-09-09T02:06:18.462Z,14.84
2022-09-09T02:07:18.451Z,14.82
2022-09-09T02:08:18.439Z,14.84
2022-09-09T02:09:18.429Z,14.82
2022-09-09T02:10:18.739Z,14.84
2022-09-09T02:11:18.422Z,14.85
2022-09-09T02:12:18.393Z,14.94
2022-09-09T02:13:18.379Z,14.86
2022-09-09T02:14:18.637Z,14.88
2022-09-09T02:15:18.360Z,14.89
2022-09-09T02:16:18.381Z,14.84
2022-09-09T02:17:18.332Z,14.82
2022-09-09T02:18:18.326Z,14.86
2022-09-09T02:19:18.312Z,14.82
2022-09-09T02:20:18.327Z,14.82
2022-09-09T02:21:18.286Z,14.84
2022-09-09T02:22:18.279Z,14.77
2022-09-09T02:23:18.334Z,14.60
2022-09-09T02:24:18.257Z,14.59
2022-09-09T02:25:18.271Z,14.59
2022-09-09T02:26:18.235Z,14.60
2022-09-09T02:27:18.462Z,14.66
2022-09-09T02:28:18.211Z,14.63
2022-09-09T02:29:18.198Z,14.65
2022-09-09T02:30:18.201Z,14.65
2022-09-09T02:31:18.176Z,14.62
2022-09-09T02:32:18.165Z,14.60
2022-09-09T02:33:18.154Z,14.63
2022-09-09T02:34:18.142Z,14.55
2022-09-09T02:35:18.143Z,14.62
2022-09-09T02:36:18.119Z,14.63
2022-09-09T02:37:18.105Z,14.60
2022-09-09T02:38:18.099Z,14.62
2022-09-09T02:39:18.082Z,14.62
2022-09-09T02:40:18.231Z,14.58
2022-09-09T02:41:18.067Z,14.60
2022-09-09T02:42:18.051Z,14.55
2022-09-09T02:43:18.058Z,14.54
2022-09-09T02:44:18.032Z,14.58
2022-09-09T02:45:18.013Z,14.48
2022-09-09T02:46:18.437Z,14.48
2022-09-09T02:47:17.995Z,14.53
2022-09-09T02:48:18.190Z,14.60
2022-09-09T02:49:17.976Z,14.55
2022-09-09T02:50:17.959Z,14.60
2022-09-09T02:51:17.970Z,14.54
2022-09-09T02:52:17.937Z,14.51
2022-09-09T02:53:17.923Z,14.47
2022-09-09T02:54:17.925Z,14.47
2022-09-09T02:55:17.899Z,14.66
2022-09-09T02:56:17.889Z,14.62
2022-09-09T02:57:17.889Z,14.63
2022-09-09T02:58:17.916Z,14.51
2022-09-09T02:59:17.872Z,14.51
2022-09-09T03:00:17.846Z,14.51
2022-09-09T03:01:18.457Z,14.48
2022-09-09T03:02:17.894Z,14.63
2022-09-09T03:03:17.807Z,14.58
2022-09-09T03:04:17.802Z,14.59
2022-09-09T03:05:17.944Z,14.55
2022-09-09T03:06:17.822Z,14.54
2022-09-09T03:07:17.765Z,14.63
2022-09-09T03:08:17.755Z,14.55
2022-09-09T03:09:17.744Z,14.54
2022-09-09T03:10:17.731Z,14.54
2022-09-09T03:11:17.731Z,14.59
2022-09-09T03:12:17.710Z,14.50
2022-09-09T03:13:17.694Z,14.59
2022-09-09T03:14:17.689Z,14.59
2022-09-09T03:15:17.820Z,14.63
2022-09-09T03:16:17.833Z,14.50
2022-09-09T03:17:17.667Z,14.53
2022-09-09T03:18:17.911Z,14.55
2022-09-09T03:19:17.626Z,14.62
2022-09-09T03:20:17.709Z,14.63
2022-09-09T03:21:17.608Z,14.55
2022-09-09T03:22:20.240Z,14.53
2022-09-09T03:23:17.580Z,14.51
2022-09-09T03:24:17.572Z,14.47
2022-09-09T03:25:17.559Z,14.47
2022-09-09T03:26:17.544Z,14.59
2022-09-09T03:27:17.543Z,14.55
2022-09-09T03:28:17.522Z,14.51
2022-09-09T03:29:17.516Z,14.51
2022-09-09T03:30:17.501Z,14.54
2022-09-09T03:31:17.572Z,14.51
2022-09-09T03:32:17.490Z,14.55
2022-09-09T03:33:17.466Z,14.47
2022-09-09T03:34:19.459Z,14.51
2022-09-09T03:35:18.332Z,14.51
2022-09-09T03:36:18.791Z,14.44
2022-09-09T03:37:17.421Z,14.47
2022-09-09T03:38:17.413Z,14.50
2022-09-09T03:39:18.444Z,14.37
2022-09-09T03:40:20.906Z,14.40
2022-09-09T03:41:17.376Z,14.43
2022-09-09T03:42:17.365Z,14.54
2022-09-09T03:43:17.354Z,14.47
2022-09-09T03:44:17.341Z,14.44
2022-09-09T03:45:17.346Z,14.47
2022-09-09T03:46:17.424Z,14.44
2022-09-09T03:47:17.330Z,14.40
2022-09-09T03:48:17.298Z,14.44
2022-09-09T03:49:17.285Z,14.48
2022-09-09T03:50:17.668Z,14.45
2022-09-09T03:51:17.263Z,14.41
2022-09-09T03:52:21.624Z,14.44
2022-09-09T03:53:18.243Z,14.44
2022-09-09T03:54:17.276Z,14.41
2022-09-09T03:55:17.256Z,14.44
2022-09-09T03:56:17.229Z,14.44
2022-09-09T03:57:17.195Z,14.47
2022-09-09T03:58:17.182Z,14.41
2022-09-09T03:59:17.173Z,14.45
2022-09-09T04:00:17.162Z,14.47
2022-09-09T04:01:17.217Z,14.41
2022-09-09T04:02:17.204Z,14.43
2022-09-09T04:03:17.153Z,14.48
2022-09-09T04:04:17.116Z,14.40
2022-09-09T04:05:17.120Z,14.33
2022-09-09T04:06:17.094Z,14.29
2022-09-09T04:07:17.086Z,14.29
2022-09-09T04:08:17.071Z,14.25
2022-09-09T04:09:17.069Z,14.28
2022-09-09T04:10:17.065Z,14.32
2022-09-09T04:11:17.052Z,14.36
2022-09-09T04:12:17.027Z,14.32
2022-09-09T04:13:17.019Z,14.26
2022-09-09T04:14:17.004Z,14.30
2022-09-09T04:15:21.780Z,14.29
2022-09-09T04:16:17.052Z,14.30
2022-09-09T04:17:16.974Z,14.28
2022-09-09T04:18:19.895Z,14.17
2022-09-09T04:19:16.969Z,14.17
2022-09-09T04:20:16.956Z,14.22
2022-09-09T04:21:16.939Z,14.18
2022-09-09T04:22:16.916Z,14.17
2022-09-09T04:23:16.909Z,14.29
2022-09-09T04:24:16.890Z,14.25
2022-09-09T04:25:16.903Z,14.18
2022-09-09T04:26:16.871Z,14.29
2022-09-09T04:27:16.864Z,14.25
2022-09-09T04:28:17.847Z,14.25
2022-09-09T04:29:16.862Z,14.29
2022-09-09T04:30:16.827Z,14.33
2022-09-09T04:31:16.866Z,14.29
2022-09-09T04:32:17.089Z,14.36
2022-09-09T04:33:16.813Z,14.26
2022-09-09T04:34:16.782Z,14.28
2022-09-09T04:35:16.829Z,14.29
2022-09-09T04:36:23.314Z,14.33
2022-09-09T04:37:16.752Z,14.32
2022-09-09T04:38:16.759Z,14.29
2022-09-09T04:39:16.730Z,14.36
2022-09-09T04:40:16.790Z,14.26
2022-09-09T04:41:16.708Z,14.35
2022-09-09T04:42:16.708Z,14.32
2022-09-09T04:43:16.725Z,14.28
2022-09-09T04:44:16.674Z,14.29
2022-09-09T04:45:16.736Z,14.29
2022-09-09T04:46:16.718Z,14.30
2022-09-09T04:47:16.757Z,14.33
2022-09-09T04:48:16.680Z,14.40
2022-09-09T04:49:16.616Z,14.43
2022-09-09T04:50:16.637Z,14.40
2022-09-09T04:51:16.612Z,14.37
2022-09-09T04:52:16.580Z,14.36
2022-09-09T04:53:16.586Z,14.40
2022-09-09T04:54:16.582Z,14.44
2022-09-09T04:55:16.549Z,14.43
2022-09-09T04:56:16.543Z,14.45
2022-09-09T04:57:18.815Z,14.44
2022-09-09T04:58:16.526Z,14.51
2022-09-09T04:59:16.527Z,14.50
2022-09-09T05:00:16.493Z,14.54
2022-09-09T05:01:16.517Z,14.48
2022-09-09T05:02:16.512Z,14.55
2022-09-09T05:03:16.460Z,14.55
2022-09-09T05:04:16.467Z,14.62
2022-09-09T05:05:16.438Z,14.54
2022-09-09T05:06:16.423Z,14.62
2022-09-09T05:07:16.434Z,14.59
2022-09-09T05:08:16.397Z,14.62
2022-09-09T05:09:17.958Z,14.60
2022-09-09T05:10:16.374Z,14.59
2022-09-09T05:11:16.364Z,14.68
2022-09-09T05:12:16.353Z,14.63
2022-09-09T05:13:16.859Z,14.77
2022-09-09T05:14:17.766Z,14.79
2022-09-09T05:15:16.326Z,14.79
2022-09-09T05:16:16.376Z,14.84
2022-09-09T05:17:16.326Z,14.94
2022-09-09T05:18:16.287Z,14.96
2022-09-09T05:19:21.249Z,14.97
2022-09-09T05:20:19.207Z,15.14
2022-09-09T05:21:16.253Z,15.04
2022-09-09T05:22:16.242Z,15.22
2022-09-09T05:23:16.247Z,15.24
2022-09-09T05:24:16.220Z,15.25
2022-09-09T05:25:16.238Z,15.31
2022-09-09T05:26:17.676Z,15.40
2022-09-09T05:27:16.184Z,15.46
2022-09-09T05:28:16.354Z,15.57
2022-09-09T05:29:16.173Z,15.52
2022-09-09T05:30:16.150Z,15.54
2022-09-09T05:31:16.243Z,15.58
2022-09-09T05:32:16.148Z,15.70
2022-09-09T05:33:16.130Z,15.70
2022-09-09T05:34:16.106Z,15.90
2022-09-09T05:35:16.117Z,15.94
2022-09-09T05:36:16.095Z,16.00
2022-09-09T05:37:16.070Z,16.13
2022-09-09T05:38:16.072Z,16.05
2022-09-09T05:39:18.192Z,16.08
2022-09-09T05:40:16.073Z,16.15
2022-09-09T05:41:16.026Z,16.26
2022-09-09T05:42:16.016Z,16.33
2022-09-09T05:43:16.007Z,16.28
2022-09-09T05:44:16.011Z,16.42
2022-09-09T05:45:15.985Z,16.50
2022-09-09T05:46:16.060Z,16.69
2022-09-09T05:47:15.966Z,16.66
2022-09-09T05:48:15.946Z,16.86
2022-09-09T05:49:15.955Z,17.04
2022-09-09T05:50:16.315Z,17.14
2022-09-09T05:51:16.103Z,17.24
2022-09-09T05:52:15.903Z,17.30
2022-09-09T05:53:15.894Z,17.39
2022-09-09T05:54:18.489Z,17.29
2022-09-09T05:55:15.885Z,17.22
2022-09-09T05:56:15.857Z,17.22
2022-09-09T05:57:15.850Z,17.22
2022-09-09T05:58:15.832Z,17.22
2022-09-09T05:59:15.836Z,17.29
2022-09-09T06:00:15.847Z,17.44
2022-09-09T06:01:15.850Z,17.46
2022-09-09T06:02:15.947Z,17.51
2022-09-09T06:03:15.927Z,17.72
2022-09-09T06:04:15.788Z,18.00
2022-09-09T06:05:15.757Z,18.20
2022-09-09T06:06:15.747Z,18.38
2022-09-09T06:07:15.732Z,18.80
2022-09-09T06:08:15.724Z,19.12
2022-09-09T06:09:15.738Z,19.41
2022-09-09T06:10:15.700Z,19.54
2022-09-09T06:11:15.706Z,19.67
2022-09-09T06:12:15.678Z,19.81
2022-09-09T06:13:15.815Z,19.89
2022-09-09T06:14:15.658Z,20.14
2022-09-09T06:15:15.684Z,20.21
2022-09-09T06:16:15.684Z,20.24
2022-09-09T06:17:15.629Z,20.37
2022-09-09T06:18:15.611Z,20.58
2022-09-09T06:19:18.855Z,20.78
2022-09-09T06:20:15.582Z,21.09
2022-09-09T06:21:16.377Z,21.48
2022-09-09T06:22:15.567Z,21.67
2022-09-09T06:23:15.556Z,21.98
2022-09-09T06:24:15.569Z,22.30
2022-09-09T06:25:15.537Z,22.63
2022-09-09T06:26:15.593Z,22.75
2022-09-09T06:27:15.559Z,22.90
2022-09-09T06:28:15.494Z,23.34
2022-09-09T06:29:15.491Z,23.39
2022-09-09T06:30:17.062Z,23.59
2022-09-09T06:31:15.563Z,23.47
2022-09-09T06:32:15.454Z,23.68
2022-09-09T06:33:15.446Z,24.14
2022-09-09T06:34:15.431Z,24.57
2022-09-09T06:35:17.135Z,25.16
2022-09-09T06:36:15.422Z,25.73
2022-09-09T06:37:15.403Z,26.19
2022-09-09T06:38:15.540Z,26.74
2022-09-09T06:39:15.400Z,26.90
2022-09-09T06:40:15.409Z,27.11
2022-09-09T06:41:15.357Z,27.52
2022-09-09T06:42:15.886Z,27.45
2022-09-09T06:43:15.348Z,26.92
2022-09-09T06:44:15.339Z,26.16
2022-09-09T06:45:15.311Z,25.33
2022-09-09T06:46:15.358Z,24.68
2022-09-09T06:47:15.292Z,24.01
2022-09-09T06:48:15.280Z,23.50
2022-09-09T06:49:15.285Z,23.31
2022-09-09T06:50:15.254Z,23.80
2022-09-09T06:51:15.245Z,24.99
2022-09-09T06:52:15.235Z,25.78
2022-09-09T06:53:18.074Z,25.69
2022-09-09T06:54:15.210Z,25.66
2022-09-09T06:55:15.201Z,25.66
2022-09-09T06:56:17.972Z,25.23
2022-09-09T06:57:36.055Z,25.70
2022-09-09T06:58:16.180Z,25.83
2022-09-09T06:59:16.466Z,26.40
2022-09-09T07:00:15.153Z,27.00
2022-09-09T07:01:15.200Z,27.37
2022-09-09T07:02:15.140Z,27.63
2022-09-09T07:03:15.139Z,28.14
2022-09-09T07:04:15.100Z,28.11
2022-09-09T07:05:15.091Z,28.20
2022-09-09T07:06:22.848Z,28.72
2022-09-09T07:07:15.084Z,29.38
2022-09-09T07:08:15.072Z,29.93
2022-09-09T07:09:15.061Z,30.25
2022-09-09T07:10:15.036Z,30.43
2022-09-09T07:11:15.026Z,30.39
2022-09-09T07:12:15.465Z,30.65
2022-09-09T07:13:15.003Z,31.05
2022-09-09T07:14:15.067Z,30.88
2022-09-09T07:15:15.002Z,30.70
2022-09-09T07:16:15.088Z,30.43
2022-09-09T07:17:14.961Z,30.23
2022-09-09T07:18:15.928Z,30.21
2022-09-09T07:19:14.939Z,30.16
2022-09-09T07:20:14.926Z,30.46
2022-09-09T07:21:14.938Z,30.61
2022-09-09T07:22:14.914Z,30.84
2022-09-09T07:23:14.916Z,31.37
2022-09-09T07:24:14.888Z,31.62
2022-09-09T07:25:14.875Z,31.58
2022-09-09T07:26:14.863Z,31.05
2022-09-09T07:27:14.849Z,30.77
2022-09-09T07:28:14.855Z,30.43
2022-09-09T07:29:18.485Z,30.05
2022-09-09T07:30:21.072Z,29.63
2022-09-09T07:31:15.917Z,29.20
2022-09-09T07:32:14.800Z,29.10
2022-09-09T07:33:14.800Z,29.14
2022-09-09T07:34:14.776Z,29.53
2022-09-09T07:35:15.415Z,29.79
2022-09-09T07:36:14.759Z,30.02
2022-09-09T07:37:14.758Z,30.10
2022-09-09T07:38:14.750Z,30.30
2022-09-09T07:39:14.724Z,30.61
2022-09-09T07:40:14.751Z,30.83
2022-09-09T07:41:14.699Z,31.17
2022-09-09T07:42:14.688Z,31.64
2022-09-09T07:43:17.348Z,31.92
2022-09-09T07:44:14.682Z,32.48
2022-09-09T07:45:14.655Z,32.92
2022-09-09T07:46:15.011Z,32.93
2022-09-09T07:47:14.665Z,32.52
2022-09-09T07:48:14.636Z,32.49
2022-09-09T07:49:14.611Z,32.29
2022-09-09T07:50:15.435Z,32.52
2022-09-09T07:51:14.591Z,32.77
2022-09-09T07:52:15.915Z,33.42
2022-09-09T07:53:14.570Z,33.64
2022-09-09T07:54:14.560Z,33.68
2022-09-09T07:55:14.553Z,33.58
2022-09-09T07:56:14.540Z,33.77
2022-09-09T07:57:19.585Z,33.52
2022-09-09T07:58:14.516Z,33.42
2022-09-09T07:59:14.508Z,32.97
2022-09-09T08:00:14.497Z,32.86
2022-09-09T08:01:14.491Z,33.05
2022-09-09T08:02:14.502Z,33.27
2022-09-09T08:03:14.766Z,33.40
2022-09-09T08:04:14.469Z,32.93
2022-09-09T08:05:14.443Z,32.80
2022-09-09T08:06:16.600Z,32.63
2022-09-09T08:07:14.449Z,32.59
2022-09-09T08:08:14.412Z,33.11
2022-09-09T08:09:14.421Z,33.42
2022-09-09T08:10:14.395Z,33.86
2022-09-09T08:11:14.400Z,34.52
2022-09-09T08:12:14.370Z,35.00
2022-09-09T08:13:18.283Z,35.36
2022-09-09T08:14:14.354Z,35.41
2022-09-09T08:15:14.354Z,35.63
2022-09-09T08:16:14.350Z,35.37
2022-09-09T08:17:14.334Z,34.62
2022-09-09T08:18:14.310Z,34.50
2022-09-09T08:19:14.313Z,34.03
2022-09-09T08:20:14.491Z,33.52
2022-09-09T08:21:14.954Z,32.92
2022-09-09T08:22:14.270Z,32.03
2022-09-09T08:23:14.260Z,30.77
2022-09-09T08:24:14.296Z,29.27
2022-09-09T08:25:14.254Z,28.63
2022-09-09T08:26:14.310Z,29.02
2022-09-09T08:27:14.216Z,30.02
2022-09-09T08:28:14.200Z,29.75
2022-09-09T08:29:14.219Z,28.89
2022-09-09T08:30:14.183Z,27.98
2022-09-09T08:31:14.263Z,27.36
2022-09-09T08:32:14.160Z,26.88
2022-09-09T08:33:14.152Z,26.38
2022-09-09T08:34:14.340Z,26.16
2022-09-09T08:35:14.158Z,25.96
2022-09-09T08:36:14.119Z,25.83
2022-09-09T08:37:14.235Z,25.66
2022-09-09T08:38:14.095Z,25.48
2022-09-09T08:39:14.096Z,25.47
2022-09-09T08:40:14.108Z,25.28
2022-09-09T08:41:14.060Z,25.03
2022-09-09T08:42:14.051Z,24.89
2022-09-09T08:43:14.314Z,24.85
2022-09-09T08:44:14.050Z,24.69
2022-09-09T08:45:14.014Z,24.60
2022-09-09T08:46:14.051Z,24.28
2022-09-09T08:47:13.996Z,23.86
2022-09-09T08:48:13.990Z,23.62
2022-09-09T08:49:13.978Z,23.48
2022-09-09T08:50:13.983Z,23.36
2022-09-09T08:51:13.969Z,23.31
2022-09-09T08:52:13.945Z,23.12
2022-09-09T08:53:13.929Z,23.25
2022-09-09T08:54:13.922Z,23.20
2022-09-09T08:55:16.966Z,23.28
2022-09-09T08:56:14.471Z,23.28
2022-09-09T08:57:13.885Z,23.37
2022-09-09T08:58:13.900Z,23.23
2022-09-09T08:59:13.876Z,23.12
2022-09-09T09:00:13.906Z,23.02
2022-09-09T09:01:13.869Z,23.00
2022-09-09T09:02:16.682Z,23.12
2022-09-09T09:03:13.818Z,23.18
2022-09-09T09:04:13.870Z,23.31
2022-09-09T09:05:13.797Z,23.58
2022-09-09T09:06:13.786Z,23.92
2022-09-09T09:07:13.799Z,24.21
2022-09-09T09:08:13.769Z,24.35
2022-09-09T09:09:13.768Z,24.50
2022-09-09T09:10:37.489Z,24.92
2022-09-09T09:11:14.728Z,25.60
2022-09-09T09:12:13.720Z,26.47
2022-09-09T09:13:13.707Z,27.52
2022-09-09T09:14:13.699Z,28.69
2022-09-09T09:15:13.706Z,29.38
2022-09-09T09:16:13.741Z,29.82
2022-09-09T09:17:13.855Z,30.63
2022-09-09T09:18:13.676Z,31.39
2022-09-09T09:19:13.644Z,31.05
2022-09-09T09:20:13.652Z,30.99
2022-09-09T09:21:13.627Z,30.85
2022-09-09T09:22:13.610Z,30.92
2022-09-09T09:23:13.620Z,30.43
2022-09-09T09:24:13.591Z,30.16
2022-09-09T09:25:13.599Z,30.18
2022-09-09T09:26:13.571Z,30.63
2022-09-09T09:27:13.595Z,31.18
2022-09-09T09:28:13.680Z,31.77
2022-09-09T09:29:13.533Z,32.49
2022-09-09T09:30:26.883Z,33.14
2022-09-09T09:31:14.546Z,34.20
2022-09-09T09:32:13.540Z,34.78
2022-09-09T09:33:13.492Z,35.12
2022-09-09T09:34:13.508Z,35.55
2022-09-09T09:35:13.473Z,35.63
2022-09-09T09:36:13.466Z,35.34
2022-09-09T09:37:13.457Z,35.15
2022-09-09T09:40:14.419Z,35.66
2022-09-09T09:41:13.478Z,35.41
2022-09-09T09:42:13.406Z,35.18
2022-09-09T09:43:13.454Z,35.44
2022-09-09T09:44:13.381Z,35.95
2022-09-09T09:45:13.380Z,36.30
2022-09-09T09:46:17.914Z,36.49
2022-09-09T09:47:13.362Z,36.51
2022-09-09T09:48:13.839Z,36.25
2022-09-09T09:49:13.347Z,36.62
2022-09-09T09:50:13.353Z,36.99
2022-09-09T09:51:13.309Z,37.58
2022-09-09T09:52:13.314Z,37.55
2022-09-09T09:53:13.285Z,37.65
2022-09-09T09:54:13.278Z,37.83
2022-09-09T09:55:13.287Z,37.94
2022-09-09T09:56:13.259Z,37.39
2022-09-09T09:57:13.263Z,37.45
2022-09-09T09:58:15.155Z,37.99
2022-09-09T09:59:23.314Z,37.42
2022-09-09T10:00:14.434Z,36.73
2022-09-09T10:01:13.251Z,36.89
2022-09-09T10:02:13.194Z,37.29
2022-09-09T10:03:13.183Z,37.71
2022-09-09T10:04:13.197Z,38.01
2022-09-09T10:05:13.184Z,37.93
2022-09-09T10:06:13.240Z,38.20
2022-09-09T10:07:13.145Z,38.20
2022-09-09T10:08:13.139Z,38.24
2022-09-09T10:09:13.127Z,38.55
2022-09-09T10:10:14.470Z,39.21
2022-09-09T10:11:13.128Z,38.92
2022-09-09T10:12:13.126Z,37.29
2022-09-09T10:13:13.088Z,35.29
2022-09-09T10:14:13.078Z,34.20
2022-09-09T10:15:13.110Z,33.84
2022-09-09T10:16:13.091Z,34.38
2022-09-09T10:17:13.058Z,34.21
2022-09-09T10:18:13.040Z,33.76
2022-09-09T10:19:13.027Z,33.74
2022-09-09T10:20:13.014Z,33.47
2022-09-09T10:21:13.019Z,33.67
2022-09-09T10:22:12.999Z,33.99
2022-09-09T10:23:13.566Z,33.99
2022-09-09T10:24:16.250Z,34.27
2022-09-09T10:25:13.040Z,34.88
2022-09-09T10:26:12.957Z,34.78
2022-09-09T10:27:12.981Z,34.78
2022-09-09T10:28:12.935Z,35.14
2022-09-09T10:29:12.946Z,35.44
2022-09-09T10:30:12.915Z,35.11
2022-09-09T10:31:12.928Z,34.62
2022-09-09T10:32:12.902Z,34.03
2022-09-09T10:33:12.901Z,33.59
2022-09-09T10:34:12.878Z,32.77
2022-09-09T10:35:12.877Z,32.12
2022-09-09T10:36:13.059Z,31.77
2022-09-09T10:37:12.840Z,31.59
2022-09-09T10:38:12.834Z,31.46
2022-09-09T10:39:12.820Z,31.70
2022-09-09T10:40:12.955Z,31.87
2022-09-09T10:41:12.798Z,32.36
2022-09-09T10:42:12.790Z,33.14
2022-09-09T10:43:12.792Z,33.17
2022-09-09T10:44:12.769Z,32.53
2022-09-09T10:45:12.773Z,31.84
2022-09-09T10:46:12.788Z,31.10
2022-09-09T10:47:12.732Z,30.10
2022-09-09T10:48:12.727Z,29.82
2022-09-09T10:49:12.718Z,29.32
2022-09-09T10:50:12.735Z,29.17
2022-09-09T10:51:16.013Z,29.63
2022-09-09T10:52:12.688Z,29.66
2022-09-09T10:53:12.676Z,30.08
2022-09-09T10:54:12.664Z,30.39
2022-09-09T10:55:12.655Z,30.18
2022-09-09T10:56:12.657Z,30.15
2022-09-09T10:57:12.706Z,30.85
2022-09-09T10:58:12.622Z,31.96
2022-09-09T10:59:12.630Z,33.36
2022-09-09T11:00:12.630Z,34.73
2022-09-09T11:01:12.657Z,35.07
2022-09-09T11:02:12.582Z,35.39
2022-09-09T11:03:12.572Z,35.45
2022-09-09T11:04:12.639Z,34.77
2022-09-09T11:05:12.548Z,34.40
2022-09-09T11:06:19.763Z,34.54
2022-09-09T11:07:12.529Z,33.74
2022-09-09T11:08:12.581Z,32.89
2022-09-09T11:09:12.505Z,32.07
2022-09-09T11:10:12.504Z,31.52
2022-09-09T11:11:12.499Z,30.88
2022-09-09T11:12:12.482Z,31.70
2022-09-09T11:13:12.468Z,32.63
2022-09-09T11:14:13.026Z,33.08
2022-09-09T11:15:12.483Z,33.28
2022-09-09T11:16:13.024Z,33.17
2022-09-09T11:17:12.427Z,33.43
2022-09-09T11:18:12.420Z,33.83
2022-09-09T11:19:12.408Z,33.59
2022-09-09T11:20:18.588Z,33.09
2022-09-09T11:21:12.385Z,33.05
2022-09-09T11:22:12.394Z,33.43
2022-09-09T11:23:12.388Z,32.73
2022-09-09T11:24:12.373Z,32.08
2022-09-09T11:25:12.381Z,32.53
2022-09-09T11:26:13.249Z,32.87
2022-09-09T11:27:12.343Z,33.02
2022-09-09T11:28:12.360Z,33.32
2022-09-09T11:29:13.033Z,33.27
2022-09-09T11:30:27.244Z,33.50
2022-09-09T11:31:13.314Z,33.50
2022-09-09T11:32:12.276Z,32.08
2022-09-09T11:33:12.273Z,30.63
2022-09-09T11:34:14.026Z,29.81
2022-09-09T11:35:12.312Z,29.93
2022-09-09T11:36:12.232Z,30.10
2022-09-09T11:37:12.225Z,30.13
2022-09-09T11:38:12.228Z,29.93
2022-09-09T11:39:17.536Z,30.12
2022-09-09T11:40:12.361Z,30.39
2022-09-09T11:41:12.184Z,31.00
2022-09-09T11:42:12.173Z,31.47
2022-09-09T11:43:12.176Z,31.62
2022-09-09T11:44:12.176Z,32.04
2022-09-09T11:45:12.164Z,31.94
2022-09-09T11:46:12.242Z,31.92
2022-09-09T11:47:12.123Z,31.70
2022-09-09T11:48:12.125Z,32.00
2022-09-09T11:49:12.117Z,31.97
2022-09-09T11:50:12.098Z,32.31
2022-09-09T11:51:16.680Z,32.40
2022-09-09T11:52:13.106Z,31.66
2022-09-09T11:53:12.062Z,31.33
2022-09-09T11:54:12.072Z,31.31
2022-09-09T11:55:12.091Z,31.46
2022-09-09T11:56:12.038Z,30.81
2022-09-09T11:57:12.023Z,29.91
2022-09-09T11:58:12.047Z,29.12
2022-09-09T11:59:12.017Z,28.62
2022-09-09T12:00:12.008Z,28.17
2022-09-09T12:01:12.550Z,28.02
2022-09-09T12:02:12.065Z,27.74
2022-09-09T12:03:11.967Z,27.90
2022-09-09T12:04:11.970Z,27.67
2022-09-09T12:05:11.984Z,27.42
2022-09-09T12:06:11.941Z,27.51
2022-09-09T12:07:11.937Z,27.73
2022-09-09T12:08:12.099Z,27.67
2022-09-09T12:09:12.552Z,27.40
2022-09-09T12:10:11.971Z,27.51
2022-09-09T12:11:11.920Z,27.51
2022-09-09T12:12:11.893Z,27.08
2022-09-09T12:13:11.858Z,27.22
2022-09-09T12:14:12.101Z,27.74
2022-09-09T12:15:11.835Z,28.02
2022-09-09T12:16:11.898Z,28.23
2022-09-09T12:17:11.816Z,28.49
2022-09-09T12:18:12.569Z,28.63
2022-09-09T12:19:11.795Z,28.79
2022-09-09T12:20:12.066Z,28.81
2022-09-09T12:21:11.796Z,28.85
2022-09-09T12:22:11.761Z,29.07
2022-09-09T12:23:11.750Z,29.39
2022-09-09T12:24:11.741Z,29.54
2022-09-09T12:25:11.752Z,29.50
2022-09-09T12:26:11.722Z,29.16
2022-09-09T12:27:12.522Z,29.24
2022-09-09T12:28:11.700Z,29.13
2022-09-09T12:29:11.696Z,29.22
2022-09-09T12:30:11.693Z,29.24
2022-09-09T12:31:12.618Z,29.20
2022-09-09T12:32:12.471Z,29.16
2022-09-09T12:33:11.718Z,29.01
2022-09-09T12:34:11.690Z,28.84
2022-09-09T12:35:11.663Z,28.70
2022-09-09T12:36:11.621Z,28.52
2022-09-09T12:37:11.616Z,28.45
2022-09-09T12:38:11.603Z,28.25
2022-09-09T12:39:11.610Z,27.74
2022-09-09T12:40:11.673Z,27.67
2022-09-09T12:41:11.567Z,27.07
2022-09-09T12:42:11.553Z,26.88
2022-09-09T12:43:11.546Z,26.60
2022-09-09T12:44:11.547Z,26.29
2022-09-09T12:45:11.543Z,26.33
2022-09-09T12:46:11.628Z,26.16
2022-09-09T12:47:11.503Z,26.03
2022-09-09T12:48:11.572Z,26.07
2022-09-09T12:49:11.499Z,26.00
2022-09-09T12:50:11.536Z,25.85
2022-09-09T12:51:11.467Z,25.68
2022-09-09T12:52:11.449Z,25.83
2022-09-09T12:53:11.462Z,25.93
2022-09-09T12:54:11.705Z,25.91
2022-09-09T12:55:11.417Z,25.80
2022-09-09T12:56:11.405Z,25.55